Time;durP1;ratioP1;P1;durP2;ratioP2;P2;SDS_P1;SDS_P2;PMS_P1;PMS_P2;Temp;Humidity;BMP_temperature;BMP_pressure;BME280_temperature;BME280_humidity;BME280_pressure;Samples;Min_cycle;Max_cycle;Signal;HPM_P1;HPM_P2
2022/12/28 03:02:20;;;;;;;21.67;19.73;;;1.70;99.90;;;;;;5357933;23;20329;-80
2022/12/28 03:05:10;;;;;;;21.70;19.87;;;1.70;99.90;;;;;;4902251;29;20475;-79
2022/12/28 03:10:41;;;;;;;20.47;18.73;;;1.80;99.90;;;;;;4909116;29;20438;-78
2022/12/28 03:16:02;;;;;;;20.40;18.67;;;1.90;99.90;;;;;;4912094;29;20441;-80
2022/12/28 03:32:43;;;;;;;19.00;17.57;;;2.00;99.90;;;;;;4909996;29;20216;-78
2022/12/28 03:35:11;;;;;;;19.37;17.77;;;2.00;99.90;;;;;;4915548;29;20734;-78
2022/12/28 03:37:47;;;;;;;18.73;17.33;;;2.10;99.90;;;;;;4915585;29;20445;-79
2022/12/28 03:40:26;;;;;;;19.53;17.83;;;2.10;99.90;;;;;;4914961;29;20207;-79
2022/12/28 03:45:50;;;;;;;19.27;17.67;;;2.10;99.90;;;;;;4918634;29;20235;-80
2022/12/28 03:48:21;;;;;;;18.43;17.03;;;2.20;99.90;;;;;;4916306;29;20619;-78
2022/12/28 03:50:51;;;;;;;18.57;17.07;;;2.20;99.90;;;;;;4915322;29;20227;-79
2022/12/28 03:53:24;;;;;;;18.73;17.33;;;2.20;99.90;;;;;;4917243;29;20617;-79
2022/12/28 03:56:06;;;;;;;17.93;16.53;;;2.20;99.90;;;;;;4915782;29;20688;-78
2022/12/28 03:58:33;;;;;;;18.60;16.90;;;2.30;99.90;;;;;;4913868;29;20200;-78
2022/12/28 04:01:00;;;;;;;19.67;17.87;;;2.20;99.90;;;;;;4915148;29;20238;-79
2022/12/28 04:03:27;;;;;;;18.33;16.97;;;2.10;99.90;;;;;;4915733;29;20302;-79
2022/12/28 04:05:56;;;;;;;18.90;17.40;;;2.10;99.90;;;;;;4915624;29;20204;-79
2022/12/28 04:08:23;;;;;;;19.23;17.73;;;2.10;99.90;;;;;;4915633;29;20935;-78
2022/12/28 04:10:52;;;;;;;18.77;17.20;;;2.20;99.90;;;;;;4912829;29;20232;-78
2022/12/28 04:13:19;;;;;;;19.63;18.03;;;2.20;99.90;;;;;;4915683;29;20508;-79
2022/12/28 04:16:02;;;;;;;19.10;17.60;;;2.20;99.90;;;;;;4916097;29;20286;-79
2022/12/28 04:18:30;;;;;;;18.20;16.90;;;2.40;99.90;;;;;;4916010;29;20287;-78
2022/12/28 04:20:59;;;;;;;17.90;16.57;;;2.40;99.90;;;;;;4914974;29;20234;-79
2022/12/28 04:23:27;;;;;;;17.93;16.73;;;2.40;99.90;;;;;;4915318;29;20472;-78
2022/12/28 04:26:15;;;;;;;17.07;15.80;;;2.50;99.90;;;;;;4924147;29;20344;-78
2022/12/28 04:28:44;;;;;;;17.27;16.07;;;2.50;99.90;;;;;;4900058;29;20730;-78
2022/12/28 04:31:21;;;;;;;17.30;16.10;;;2.50;99.90;;;;;;4898248;29;20238;-78
2022/12/28 04:33:56;;;;;;;16.70;15.37;;;2.60;99.90;;;;;;4898572;29;20539;-77
2022/12/28 04:36:25;;;;;;;16.80;15.60;;;2.60;99.90;;;;;;4897971;29;20204;-77
2022/12/28 04:38:52;;;;;;;17.17;15.97;;;2.60;99.90;;;;;;4898393;29;20210;-77
2022/12/28 04:41:19;;;;;;;17.30;16.00;;;2.70;99.90;;;;;;4898405;29;20518;-77
2022/12/28 04:43:46;;;;;;;17.67;16.47;;;2.60;99.90;;;;;;4901907;29;20274;-78
2022/12/28 04:46:14;;;;;;;17.17;15.97;;;2.60;99.90;;;;;;4902768;29;20204;-77
2022/12/28 04:48:41;;;;;;;16.97;15.87;;;2.70;99.90;;;;;;4902614;29;20206;-76
2022/12/28 04:51:10;;;;;;;18.10;16.73;;;2.70;99.90;;;;;;4917739;29;20235;-77
2022/12/28 04:53:39;;;;;;;17.90;16.60;;;2.70;99.90;;;;;;4917998;29;20283;-76
2022/12/28 04:56:07;;;;;;;16.70;15.60;;;2.70;99.90;;;;;;4908241;29;20251;-77
2022/12/28 04:58:35;;;;;;;17.47;16.27;;;2.70;99.90;;;;;;4916726;29;20238;-78
2022/12/28 05:01:03;;;;;;;18.43;17.10;;;2.70;99.90;;;;;;4918071;29;20278;-76
2022/12/28 05:03:30;;;;;;;18.07;16.67;;;2.70;99.90;;;;;;4915453;29;20206;-78
2022/12/28 05:06:00;;;;;;;17.70;16.40;;;2.60;99.90;;;;;;4915092;29;20213;-79
2022/12/28 05:08:27;;;;;;;17.73;16.40;;;2.60;99.90;;;;;;4919013;29;20236;-76
2022/12/28 05:10:59;;;;;;;16.80;15.70;;;2.50;99.90;;;;;;4919502;29;20220;-78
2022/12/28 05:13:26;;;;;;;17.80;16.50;;;2.50;99.90;;;;;;4916467;29;20733;-78
2022/12/28 05:15:53;;;;;;;16.50;15.40;;;2.50;99.90;;;;;;4919010;29;20204;-80
2022/12/28 05:18:20;;;;;;;16.87;15.67;;;2.40;99.90;;;;;;4920178;29;20260;-77
2022/12/28 05:20:47;;;;;;;17.10;15.80;;;2.50;99.90;;;;;;4918346;29;20287;-79
2022/12/28 05:23:14;;;;;;;16.23;15.13;;;2.50;99.90;;;;;;4917278;29;20207;-80
2022/12/28 05:25:41;;;;;;;16.93;15.63;;;2.60;99.90;;;;;;4917916;29;20222;-80
2022/12/28 05:28:09;;;;;;;16.70;15.50;;;2.60;99.90;;;;;;4917363;29;20228;-80
2022/12/28 05:30:35;;;;;;;16.80;15.70;;;2.70;99.90;;;;;;4917581;29;20621;-80
2022/12/28 05:33:02;;;;;;;16.40;15.30;;;2.80;99.90;;;;;;4918293;29;20259;-79
2022/12/28 05:35:29;;;;;;;16.40;15.30;;;2.80;99.90;;;;;;4917117;29;20259;-80
2022/12/28 05:37:56;;;;;;;15.47;14.47;;;2.80;99.90;;;;;;4918215;29;20266;-79
2022/12/28 05:40:22;;;;;;;15.43;14.23;;;2.90;99.90;;;;;;4917076;29;20214;-80
2022/12/28 05:42:49;;;;;;;15.93;14.73;;;2.90;99.90;;;;;;4918081;29;20231;-80
2022/12/28 05:45:17;;;;;;;15.83;14.83;;;3.00;99.90;;;;;;4918163;29;20287;-80
2022/12/28 05:47:44;;;;;;;16.57;15.33;;;3.00;99.90;;;;;;4918030;29;20223;-80
2022/12/28 05:50:11;;;;;;;15.70;14.70;;;3.10;99.90;;;;;;4918519;29;20215;-80
2022/12/28 05:52:38;;;;;;;16.17;15.07;;;3.20;99.90;;;;;;4917742;29;20263;-80
2022/12/28 05:55:06;;;;;;;15.90;14.80;;;3.20;99.90;;;;;;4917786;29;20208;-80
2022/12/28 05:57:32;;;;;;;15.40;14.50;;;3.30;99.90;;;;;;4918883;29;20200;-80
2022/12/28 05:59:59;;;;;;;15.67;14.67;;;3.40;99.90;;;;;;4917216;29;20208;-80
2022/12/28 06:02:27;;;;;;;15.90;14.77;;;3.40;99.90;;;;;;4918051;29;20250;-79
2022/12/28 06:04:54;;;;;;;15.50;14.40;;;3.40;99.90;;;;;;4917990;29;20231;-79
2022/12/28 06:07:22;;;;;;;15.20;14.30;;;3.40;99.90;;;;;;4917544;29;20685;-79
2022/12/28 06:09:49;;;;;;;15.60;14.50;;;3.40;99.90;;;;;;4918316;29;20302;-80
2022/12/28 06:12:15;;;;;;;15.13;14.23;;;3.50;99.90;;;;;;4914891;29;20229;-80
2022/12/28 06:14:42;;;;;;;15.17;14.27;;;3.50;99.90;;;;;;4919507;29;20688;-80
2022/12/28 06:17:09;;;;;;;15.13;14.27;;;3.50;99.90;;;;;;4918474;29;20688;-79
2022/12/28 06:19:37;;;;;;;15.03;14.10;;;3.50;99.90;;;;;;4918042;29;20222;-80
2022/12/28 06:22:04;;;;;;;16.13;15.13;;;3.50;99.90;;;;;;4918310;29;20315;-80
2022/12/28 06:24:31;;;;;;;15.60;14.60;;;3.50;99.90;;;;;;4920196;29;20209;-81
2022/12/28 06:26:58;;;;;;;16.07;14.97;;;3.60;99.90;;;;;;4918666;29;20631;-81
2022/12/28 06:29:24;;;;;;;15.50;14.60;;;3.50;99.90;;;;;;4918569;29;20200;-80
2022/12/28 06:31:53;;;;;;;15.37;14.37;;;3.50;99.90;;;;;;4917761;29;20252;-80
2022/12/28 06:34:20;;;;;;;14.87;14.07;;;3.50;99.90;;;;;;4918361;29;20204;-81
2022/12/28 06:36:51;;;;;;;15.80;14.70;;;3.50;99.90;;;;;;4919082;29;20272;-79
2022/12/28 06:39:18;;;;;;;15.23;14.20;;;3.50;99.90;;;;;;4918842;29;20219;-80
2022/12/28 06:41:44;;;;;;;15.60;14.50;;;3.50;99.90;;;;;;4918487;29;20219;-80
2022/12/28 06:44:13;;;;;;;15.60;14.60;;;3.50;99.90;;;;;;4918526;29;20212;-79
2022/12/28 06:46:40;;;;;;;15.90;14.90;;;3.60;99.90;;;;;;4917633;29;20631;-80
2022/12/28 06:49:07;;;;;;;16.73;15.30;;;3.60;99.90;;;;;;4914750;29;20260;-80
2022/12/28 06:51:39;;;;;;;16.60;15.50;;;3.70;99.90;;;;;;4917652;29;20230;-81
2022/12/28 06:54:08;;;;;;;16.40;15.27;;;3.70;99.90;;;;;;4918810;29;20200;-80
2022/12/28 06:56:36;;;;;;;18.30;17.00;;;3.70;99.90;;;;;;4917272;29;20200;-80
2022/12/28 06:59:04;;;;;;;17.80;16.57;;;3.80;99.90;;;;;;4917637;29;20224;-82
2022/12/28 07:01:32;;;;;;;17.83;16.63;;;3.80;99.90;;;;;;4918433;29;20276;-81
2022/12/28 07:04:00;;;;;;;17.90;16.70;;;3.90;99.90;;;;;;4918090;29;20234;-80
2022/12/28 07:06:28;;;;;;;16.53;15.43;;;3.90;99.90;;;;;;4917383;29;20681;-79
2022/12/28 07:08:59;;;;;;;16.30;15.30;;;3.90;99.90;;;;;;4917248;29;20205;-80
2022/12/28 07:11:27;;;;;;;17.03;15.93;;;4.00;99.90;;;;;;4916532;29;20223;-80
2022/12/28 07:13:55;;;;;;;17.03;15.93;;;4.10;99.90;;;;;;4918229;29;20689;-79
2022/12/28 07:16:23;;;;;;;16.90;15.80;;;4.10;99.90;;;;;;4918325;29;20192;-80
2022/12/28 07:18:50;;;;;;;16.60;15.50;;;4.10;99.90;;;;;;4917010;29;20255;-80
2022/12/28 07:21:19;;;;;;;16.70;15.60;;;4.20;99.90;;;;;;4916332;29;20233;-81
2022/12/28 07:23:46;;;;;;;16.70;15.60;;;4.20;99.90;;;;;;4918019;29;20276;-80
2022/12/28 07:26:14;;;;;;;16.43;15.37;;;4.20;99.90;;;;;;4918080;29;20263;-81
2022/12/28 07:28:44;;;;;;;16.70;15.60;;;4.30;99.90;;;;;;4916973;29;20209;-79
2022/12/28 07:31:13;;;;;;;17.03;15.90;;;4.30;99.90;;;;;;4916307;29;20232;-79
2022/12/28 07:33:41;;;;;;;15.13;14.23;;;4.40;99.90;;;;;;4918625;29;20196;-78
2022/12/28 07:36:13;;;;;;;16.60;15.60;;;4.50;99.90;;;;;;4917795;29;20270;-80
2022/12/28 07:38:40;;;;;;;16.07;14.97;;;4.50;99.90;;;;;;4910806;29;20199;-80
2022/12/28 07:41:10;;;;;;;16.07;15.07;;;4.60;99.90;;;;;;4915994;29;20312;-80
2022/12/28 07:43:37;;;;;;;15.90;14.90;;;4.60;99.90;;;;;;4918017;29;20203;-80
2022/12/28 07:46:06;;;;;;;16.57;15.50;;;4.70;99.90;;;;;;4916398;29;20253;-80
2022/12/28 07:48:34;;;;;;;16.20;15.10;;;4.80;99.90;;;;;;4916578;29;20200;-82
2022/12/28 07:51:07;;;;;;;16.60;15.50;;;4.90;99.90;;;;;;4916192;29;20263;-81
2022/12/28 07:53:34;;;;;;;16.77;15.57;;;5.00;99.90;;;;;;4921440;29;20737;-81
2022/12/28 07:56:01;;;;;;;15.90;14.90;;;5.10;99.90;;;;;;4912650;29;20230;-80
2022/12/28 07:58:28;;;;;;;16.20;15.20;;;5.20;99.90;;;;;;4923671;29;20221;-79
2022/12/28 08:01:03;;;;;;;15.70;14.70;;;5.30;99.90;;;;;;4916155;29;20253;-79
2022/12/28 08:03:31;;;;;;;15.13;14.23;;;5.30;99.90;;;;;;4914311;29;20244;-80
2022/12/28 08:06:03;;;;;;;15.53;14.43;;;5.40;99.90;;;;;;4915777;29;20249;-80
2022/12/28 08:08:30;;;;;;;15.33;14.43;;;5.40;99.90;;;;;;4910690;29;20201;-81
2022/12/28 08:11:01;;;;;;;15.80;14.80;;;5.50;99.90;;;;;;4916434;29;20224;-80
2022/12/28 08:13:31;;;;;;;15.27;14.37;;;5.50;99.90;;;;;;4907801;29;20352;-80
2022/12/28 08:15:57;;;;;;;15.93;14.80;;;5.50;99.90;;;;;;4916593;29;20241;-79
2022/12/28 08:18:24;;;;;;;15.10;14.10;;;5.60;99.90;;;;;;4915702;29;20206;-80
2022/12/28 08:20:52;;;;;;;15.67;14.63;;;5.60;99.90;;;;;;4915136;29;20657;-79
2022/12/28 08:23:19;;;;;;;15.50;14.60;;;5.70;99.90;;;;;;4915986;29;20223;-80
2022/12/28 08:25:46;;;;;;;15.33;14.40;;;5.70;99.90;;;;;;4915528;29;20233;-81
2022/12/28 08:28:13;;;;;;;16.07;15.00;;;5.70;99.90;;;;;;4915758;29;20233;-80
2022/12/28 08:30:40;;;;;;;15.23;14.33;;;5.80;99.90;;;;;;4915290;29;20205;-80
2022/12/28 08:33:07;;;;;;;15.20;14.30;;;5.80;99.90;;;;;;4915383;29;20209;-80
2022/12/28 08:35:34;;;;;;;15.50;14.50;;;5.90;99.90;;;;;;4916628;29;20193;-80
2022/12/28 08:38:02;;;;;;;15.43;14.33;;;5.90;99.90;;;;;;4916924;29;20240;-80
2022/12/28 08:40:29;;;;;;;14.77;13.87;;;6.00;99.90;;;;;;4913772;29;20248;-80
2022/12/28 08:42:57;;;;;;;15.00;14.10;;;6.10;99.90;;;;;;4916718;29;20241;-80
2022/12/28 08:45:24;;;;;;;14.70;13.77;;;6.10;99.90;;;;;;4915549;29;20221;-80
2022/12/28 08:47:51;;;;;;;14.50;13.63;;;6.10;99.90;;;;;;4915252;29;20205;-81
2022/12/28 08:50:18;;;;;;;14.80;13.90;;;6.20;99.90;;;;;;4916254;29;20205;-80
2022/12/28 08:52:44;;;;;;;14.43;13.43;;;6.20;99.90;;;;;;4915694;29;20230;-80
2022/12/28 08:55:13;;;;;;;14.93;13.97;;;6.20;99.90;;;;;;4915178;29;20201;-80
2022/12/28 08:57:39;;;;;;;14.03;13.20;;;6.30;99.90;;;;;;4915097;29;20223;-80
2022/12/28 09:00:08;;;;;;;15.47;14.37;;;6.40;99.90;;;;;;4916475;29;20201;-80
2022/12/28 09:02:34;;;;;;;14.70;13.80;;;6.50;99.90;;;;;;4915249;29;20254;-81
2022/12/28 09:05:01;;;;;;;14.50;13.60;;;6.50;99.90;;;;;;4914935;29;20228;-81
2022/12/28 09:07:28;;;;;;;14.80;13.77;;;6.60;99.90;;;;;;4914497;29;20261;-81
2022/12/28 09:09:55;;;;;;;15.20;14.17;;;6.70;99.90;;;;;;4915518;29;20257;-80
2022/12/28 09:12:23;;;;;;;14.53;13.63;;;6.80;99.90;;;;;;4916367;29;20226;-80
2022/12/28 09:14:50;;;;;;;14.60;13.70;;;6.90;99.90;;;;;;4917310;29;20207;-81
2022/12/28 09:17:17;;;;;;;14.87;13.87;;;7.00;99.90;;;;;;4914485;29;20262;-80
2022/12/28 09:19:43;;;;;;;14.90;13.80;;;7.10;99.90;;;;;;4915303;29;20214;-78
2022/12/28 09:22:10;;;;;;;14.93;14.00;;;7.10;99.90;;;;;;4918101;29;20254;-77
2022/12/28 09:24:37;;;;;;;15.30;14.13;;;7.20;99.90;;;;;;4914581;29;20768;-77
2022/12/28 09:27:04;;;;;;;16.27;14.97;;;7.20;99.90;;;;;;4916138;29;20204;-78
2022/12/28 09:29:32;;;;;;;15.97;14.87;;;7.20;99.90;;;;;;4920943;29;20263;-78
2022/12/28 09:32:00;;;;;;;15.63;14.53;;;7.20;99.90;;;;;;4920711;29;20719;-79
2022/12/28 09:34:27;;;;;;;16.33;15.20;;;7.30;99.90;;;;;;4920666;29;20249;-79
2022/12/28 09:36:54;;;;;;;14.40;13.57;;;7.40;99.90;;;;;;4920419;29;20194;-79
2022/12/28 09:39:23;;;;;;;14.13;13.20;;;7.50;99.90;;;;;;4922429;29;20668;-78
2022/12/28 09:41:53;;;;;;;14.23;13.23;;;7.50;99.90;;;;;;4920948;29;20235;-78
2022/12/28 09:44:52;;;;;;;14.40;13.40;;;7.60;99.90;;;;;;4920974;29;20332;-79
2022/12/28 09:47:28;;;;;;;14.10;13.20;;;7.60;99.90;;;;;;4921850;29;20222;-79
2022/12/28 09:50:28;;;;;;;14.23;13.20;;;7.70;99.90;;;;;;4920152;29;20211;-79
2022/12/28 09:53:18;;;;;;;14.50;13.30;;;7.80;99.90;;;;;;4918290;29;20204;-78
2022/12/28 09:55:54;;;;;;;14.00;13.10;;;7.80;99.90;;;;;;4914238;29;20196;-79
2022/12/28 09:58:21;;;;;;;14.27;13.40;;;7.80;99.90;;;;;;4917305;29;20256;-79
2022/12/28 10:00:52;;;;;;;14.63;13.63;;;7.80;99.90;;;;;;4913305;29;20278;-79
2022/12/28 10:03:23;;;;;;;14.37;13.40;;;7.90;99.90;;;;;;4917417;29;20207;-79
2022/12/28 10:05:51;;;;;;;13.80;12.87;;;7.90;99.90;;;;;;4922986;29;20234;-80
2022/12/28 10:08:22;;;;;;;14.20;13.30;;;7.90;99.90;;;;;;4920128;29;20629;-80
2022/12/28 10:10:50;;;;;;;14.00;13.10;;;7.90;99.90;;;;;;4919311;29;20227;-78
2022/12/28 10:13:21;;;;;;;14.17;13.10;;;7.80;99.90;;;;;;4923118;29;20216;-80
2022/12/28 10:15:48;;;;;;;14.50;13.50;;;7.90;99.90;;;;;;4915132;29;20220;-78
2022/12/28 10:18:21;;;;;;;14.87;13.90;;;7.80;99.90;;;;;;4919054;29;20227;-80
2022/12/28 10:20:49;;;;;;;14.13;13.13;;;7.80;99.90;;;;;;4920362;29;20224;-79
2022/12/28 10:23:24;;;;;;;14.53;13.33;;;7.90;99.90;;;;;;4916499;29;20223;-79
2022/12/28 10:25:53;;;;;;;14.70;13.70;;;8.00;99.90;;;;;;4918845;29;20222;-79
2022/12/28 10:28:22;;;;;;;14.13;13.23;;;8.10;99.90;;;;;;4918328;29;20208;-79
2022/12/28 10:31:03;;;;;;;14.70;13.63;;;8.10;99.90;;;;;;4916202;29;20228;-80
2022/12/28 10:33:31;;;;;;;15.23;14.10;;;8.20;99.90;;;;;;4916684;29;20241;-79
2022/12/28 10:35:59;;;;;;;15.00;13.90;;;8.30;99.90;;;;;;4917421;29;20244;-80
2022/12/28 10:38:29;;;;;;;14.23;13.23;;;8.40;99.90;;;;;;4917263;29;20291;-79
2022/12/28 10:41:00;;;;;;;14.93;13.83;;;8.60;99.90;;;;;;4918245;29;20285;-79
2022/12/28 10:43:30;;;;;;;14.40;13.50;;;8.70;99.90;;;;;;4917574;29;20208;-79
2022/12/28 10:45:58;;;;;;;14.30;13.30;;;8.80;99.90;;;;;;4918323;29;20216;-78
2022/12/28 10:48:28;;;;;;;14.10;13.10;;;8.90;99.90;;;;;;4919942;29;20231;-79
2022/12/28 10:50:58;;;;;;;14.40;13.50;;;9.10;99.90;;;;;;4918395;29;20307;-78
2022/12/28 10:53:30;;;;;;;14.20;13.27;;;9.20;99.90;;;;;;4917063;29;20212;-78
2022/12/28 10:56:19;;;;;;;14.30;13.30;;;9.20;99.90;;;;;;4914949;29;21238;-79
2022/12/28 10:58:50;;;;;;;14.03;13.13;;;9.30;99.90;;;;;;4907091;29;20208;-79
2022/12/28 11:01:19;;;;;;;13.90;12.97;;;9.30;99.90;;;;;;4901408;29;20235;-78
2022/12/28 11:03:59;;;;;;;13.50;12.60;;;9.40;99.90;;;;;;4899950;29;20682;-79
2022/12/28 11:06:29;;;;;;;14.87;13.93;;;9.50;99.90;;;;;;4916945;29;20229;-79
2022/12/28 11:09:13;;;;;;;12.63;11.83;;;9.50;99.90;;;;;;4917950;29;20199;-79
2022/12/28 11:11:40;;;;;;;13.83;12.90;;;9.40;99.90;;;;;;4915164;29;20283;-79
2022/12/28 11:14:17;;;;;;;13.93;12.80;;;9.30;99.90;;;;;;4919638;29;20203;-79
2022/12/28 11:16:45;;;;;;;13.37;12.47;;;9.20;99.90;;;;;;4917109;29;20251;-79
2022/12/28 11:19:12;;;;;;;13.30;12.40;;;9.20;99.90;;;;;;4917412;29;20262;-80
2022/12/28 11:21:42;;;;;;;13.47;12.63;;;9.20;99.90;;;;;;4916250;29;20664;-79
2022/12/28 11:24:13;;;;;;;13.57;12.67;;;9.20;99.90;;;;;;4917193;29;20208;-79
2022/12/28 11:26:44;;;;;;;13.17;12.40;;;9.20;99.90;;;;;;4917284;29;20714;-80
2022/12/28 11:29:13;;;;;;;12.47;11.70;;;9.20;99.90;;;;;;4916257;29;20694;-79
2022/12/28 11:31:47;;;;;;;12.30;11.60;;;9.20;99.90;;;;;;4916750;29;20276;-79
2022/12/28 11:34:19;;;;;;;12.30;11.50;;;9.30;99.90;;;;;;4917991;29;20208;-79
2022/12/28 11:36:48;;;;;;;12.90;12.00;;;9.40;99.90;;;;;;4916325;29;20252;-79
2022/12/28 11:39:33;;;;;;;12.20;11.50;;;9.40;99.90;;;;;;4917545;29;20290;-79
2022/12/28 11:42:01;;;;;;;12.43;11.73;;;9.40;99.90;;;;;;4915500;29;20223;-79
2022/12/28 11:44:50;;;;;;;12.20;11.30;;;9.50;99.90;;;;;;4908511;29;20200;-80
2022/12/28 11:47:29;;;;;;;12.20;11.50;;;9.50;99.90;;;;;;4915613;29;20227;-79
2022/12/28 11:50:35;;;;;;;12.30;11.50;;;9.50;99.90;;;;;;4915360;29;20231;-79
2022/12/28 11:53:17;;;;;;;12.50;11.80;;;9.60;99.90;;;;;;4913955;29;20259;-79
2022/12/28 11:55:59;;;;;;;12.60;11.80;;;9.60;99.90;;;;;;4915521;29;20196;-80
2022/12/28 11:59:04;;;;;;;12.43;11.73;;;9.70;99.90;;;;;;4917012;29;20204;-79
2022/12/28 12:01:45;;;;;;;12.10;11.30;;;9.80;99.90;;;;;;4909326;29;20295;-79
2022/12/28 12:04:31;;;;;;;12.30;11.50;;;9.90;99.90;;;;;;4911238;29;20459;-78
2022/12/28 12:07:40;;;;;;;11.37;10.67;;;9.90;99.90;;;;;;4916207;29;20227;-77
2022/12/28 12:10:29;;;;;;;11.77;11.07;;;10.10;99.90;;;;;;4911096;29;20216;-78
2022/12/28 12:12:57;;;;;;;12.33;11.53;;;10.10;99.90;;;;;;4916822;29;20208;-78
2022/12/28 12:15:31;;;;;;;12.10;11.20;;;10.00;99.90;;;;;;4915199;29;20341;-78
2022/12/28 12:18:02;;;;;;;12.43;11.50;;;10.00;99.90;;;;;;4916571;29;20207;-78
2022/12/28 12:20:51;;;;;;;11.93;11.20;;;9.90;99.90;;;;;;4915443;29;20204;-79
2022/12/28 12:23:33;;;;;;;12.40;11.60;;;9.90;99.90;;;;;;4915532;29;20629;-79
2022/12/28 12:26:20;;;;;;;12.17;11.47;;;9.80;99.90;;;;;;4912053;29;20212;-79
2022/12/28 12:28:49;;;;;;;12.27;11.47;;;9.90;99.90;;;;;;4911640;29;20203;-79
2022/12/28 12:31:28;;;;;;;12.00;11.30;;;9.90;99.90;;;;;;4916626;29;20220;-82
2022/12/28 12:34:00;;;;;;;11.90;11.20;;;9.80;99.90;;;;;;4912270;29;20208;-80
2022/12/28 12:36:46;;;;;;;12.35;11.55;;;9.80;99.90;;;;;;4915694;29;20442;-80
2022/12/28 12:39:28;;;;;;;11.63;10.93;;;9.80;99.90;;;;;;4916473;29;20201;-80
2022/12/28 12:42:04;;;;;;;12.23;11.43;;;9.80;99.90;;;;;;4916326;29;20640;-81
2022/12/28 12:44:40;;;;;;;12.23;11.43;;;9.80;99.90;;;;;;4909651;29;20200;-79
2022/12/28 12:47:20;;;;;;;11.67;10.97;;;9.80;99.90;;;;;;4919040;29;20298;-78
2022/12/28 12:50:19;;;;;;;12.30;11.40;;;9.80;99.90;;;;;;4918027;29;20269;-79
2022/12/28 12:52:54;;;;;;;12.93;12.13;;;9.90;99.90;;;;;;4912475;29;20466;-79
2022/12/28 12:55:32;;;;;;;12.27;11.57;;;10.10;99.90;;;;;;4917500;29;20678;-79
2022/12/28 12:58:07;;;;;;;13.63;12.53;;;10.20;99.90;;;;;;4918781;29;20201;-78
2022/12/28 13:00:44;;;;;;;12.43;11.63;;;10.40;99.90;;;;;;4910478;29;20270;-79
2022/12/28 13:03:29;;;;;;;12.00;11.30;;;10.60;99.90;;;;;;4915853;29;20213;-77
2022/12/28 13:05:59;;;;;;;11.93;11.13;;;10.70;99.90;;;;;;4920074;29;20203;-77
2022/12/28 13:08:29;;;;;;;11.37;10.77;;;10.80;99.90;;;;;;4921135;29;20682;-78
2022/12/28 13:10:56;;;;;;;12.17;11.33;;;10.90;99.90;;;;;;4913362;29;20228;-78
2022/12/28 13:13:31;;;;;;;11.57;10.87;;;10.80;99.90;;;;;;4920113;29;20209;-79
2022/12/28 13:16:02;;;;;;;11.33;10.73;;;10.80;99.90;;;;;;4920693;29;20197;-77
2022/12/28 13:18:29;;;;;;;11.33;10.73;;;10.70;99.90;;;;;;4919065;29;20675;-78
2022/12/28 13:20:59;;;;;;;11.80;11.10;;;10.70;99.90;;;;;;4919482;29;20226;-78
2022/12/28 13:23:29;;;;;;;11.50;10.80;;;10.70;99.90;;;;;;4941603;29;20201;-78
2022/12/28 13:25:59;;;;;;;11.70;10.90;;;10.60;99.90;;;;;;4917200;29;20692;-78
2022/12/28 13:28:30;;;;;;;11.70;11.10;;;10.50;99.90;;;;;;4923026;29;20205;-77
2022/12/28 13:31:01;;;;;;;11.67;10.97;;;10.50;99.90;;;;;;4918106;29;20668;-82
2022/12/28 13:33:29;;;;;;;11.27;10.67;;;10.40;99.90;;;;;;4909240;29;20206;-79
2022/12/28 13:36:17;;;;;;;11.40;10.60;;;10.30;99.90;;;;;;4919114;29;20212;-80
2022/12/28 13:38:43;;;;;;;11.43;10.73;;;10.30;99.90;;;;;;4911562;29;20251;-79
2022/12/28 13:41:24;;;;;;;10.80;10.20;;;10.20;99.90;;;;;;4917933;29;20285;-79
2022/12/28 13:44:28;;;;;;;11.10;10.50;;;10.20;99.90;;;;;;4910896;29;20200;-79
2022/12/28 13:47:01;;;;;;;10.87;10.27;;;10.10;99.90;;;;;;4912970;29;20697;-79
2022/12/28 13:49:31;;;;;;;10.70;10.10;;;10.00;99.90;;;;;;4910279;29;20200;-79
2022/12/28 13:51:59;;;;;;;10.73;10.03;;;10.00;99.90;;;;;;4918598;29;20226;-79
2022/12/28 13:54:26;;;;;;;11.20;10.50;;;10.00;99.90;;;;;;4918196;29;20223;-79
2022/12/28 13:56:55;;;;;;;10.80;10.20;;;10.00;99.90;;;;;;4918417;29;20290;-79
2022/12/28 13:59:24;;;;;;;11.90;10.83;;;9.90;99.90;;;;;;4918346;29;20732;-79
2022/12/28 14:01:52;;;;;;;10.90;10.30;;;9.80;99.90;;;;;;4918121;29;20235;-79
2022/12/28 14:04:22;;;;;;;10.10;9.50;;;9.80;99.90;;;;;;4917092;29;20232;-79
2022/12/28 14:06:50;;;;;;;10.00;9.33;;;9.70;99.90;;;;;;4918721;29;20215;-79
2022/12/28 14:09:18;;;;;;;10.10;9.40;;;9.70;99.90;;;;;;4917216;29;20200;-79
2022/12/28 14:11:46;;;;;;;10.40;9.70;;;9.60;99.90;;;;;;4918290;29;20292;-80
2022/12/28 14:14:13;;;;;;;10.17;9.53;;;9.60;99.90;;;;;;4922378;29;20255;-79
2022/12/28 14:16:42;;;;;;;10.47;9.83;;;9.50;99.90;;;;;;4918689;29;20196;-78
2022/12/28 14:19:10;;;;;;;10.90;10.00;;;9.40;99.90;;;;;;4916809;29;20228;-79
2022/12/28 14:21:39;;;;;;;10.33;9.73;;;9.40;99.90;;;;;;4916173;29;20231;-79
2022/12/28 14:24:12;;;;;;;10.50;9.80;;;9.30;99.90;;;;;;4916685;29;20587;-78
2022/12/28 14:26:44;;;;;;;10.97;10.27;;;9.20;99.90;;;;;;4917547;29;20219;-79
2022/12/28 14:29:17;;;;;;;11.20;10.40;;;9.20;99.90;;;;;;4916753;29;20204;-79
2022/12/28 14:31:45;;;;;;;11.60;10.73;;;9.10;99.90;;;;;;4915984;29;20279;-79
2022/12/28 14:34:23;;;;;;;10.80;10.10;;;9.10;99.90;;;;;;4917008;29;20216;-79
2022/12/28 14:36:52;;;;;;;10.60;9.90;;;9.00;99.90;;;;;;4916966;29;20230;-80
2022/12/28 14:39:30;;;;;;;48.70;28.70;;;9.00;99.90;;;;;;4916744;29;20208;-80
2022/12/28 14:41:58;;;;;;;15.83;14.13;;;8.90;99.90;;;;;;4915378;29;20228;-79
2022/12/28 14:44:28;;;;;;;12.33;11.33;;;8.90;99.90;;;;;;4916702;29;20196;-79
2022/12/28 14:46:56;;;;;;;12.93;11.90;;;8.90;99.90;;;;;;4918423;29;20645;-79
2022/12/28 14:49:35;;;;;;;12.47;11.57;;;8.80;99.90;;;;;;4916468;29;20200;-79
2022/12/28 14:52:33;;;;;;;12.27;10.80;;;8.80;99.90;;;;;;4917052;29;20227;-78
2022/12/28 14:55:18;;;;;;;10.40;9.60;;;8.70;99.90;;;;;;4908339;29;20208;-79
2022/12/28 14:57:46;;;;;;;10.53;9.80;;;8.70;99.90;;;;;;4916907;29;20204;-79
2022/12/28 15:00:23;;;;;;;11.03;10.33;;;8.60;99.90;;;;;;4915943;29;20341;-80
2022/12/28 15:02:52;;;;;;;11.00;10.10;;;8.60;99.90;;;;;;4917171;29;20203;-79
2022/12/28 15:05:41;;;;;;;10.70;10.00;;;8.50;99.90;;;;;;4916294;29;20203;-79
2022/12/28 15:08:09;;;;;;;11.10;10.10;;;8.50;99.90;;;;;;4917467;29;20219;-79
2022/12/28 15:10:40;;;;;;;10.57;9.87;;;8.40;99.90;;;;;;4915444;29;20644;-79
2022/12/28 15:13:08;;;;;;;11.17;10.43;;;8.40;99.90;;;;;;4916856;29;20211;-79
2022/12/28 15:15:35;;;;;;;11.80;10.80;;;8.30;99.90;;;;;;4917155;29;20204;-79
2022/12/28 15:18:03;;;;;;;10.90;10.10;;;8.20;99.90;;;;;;4917774;29;20752;-79
2022/12/28 15:20:30;;;;;;;10.73;9.87;;;8.20;99.90;;;;;;4907669;29;20617;-79
2022/12/28 15:22:57;;;;;;;11.17;10.43;;;8.10;99.90;;;;;;4915952;29;20681;-79
2022/12/28 15:25:24;;;;;;;13.33;10.97;;;8.10;99.90;;;;;;4916599;29;20259;-79
2022/12/28 15:27:52;;;;;;;11.43;10.53;;;8.00;99.90;;;;;;4916940;29;20220;-79
2022/12/28 15:30:19;;;;;;;11.63;10.73;;;7.90;99.90;;;;;;4914683;29;20243;-77
2022/12/28 15:32:46;;;;;;;11.50;10.70;;;7.90;99.90;;;;;;4916930;29;20288;-78
2022/12/28 15:35:14;;;;;;;11.40;10.60;;;7.80;99.90;;;;;;4916594;29;20260;-79
2022/12/28 15:37:41;;;;;;;12.97;11.97;;;7.80;99.90;;;;;;4915769;29;20263;-79
2022/12/28 15:40:09;;;;;;;17.87;16.03;;;7.70;99.90;;;;;;4914744;29;20683;-79
2022/12/28 15:42:36;;;;;;;15.90;14.40;;;7.70;99.90;;;;;;4913407;29;20247;-79
2022/12/28 15:45:03;;;;;;;15.77;14.37;;;7.60;99.90;;;;;;4915397;29;20248;-78
2022/12/28 15:47:30;;;;;;;14.60;13.40;;;7.60;99.90;;;;;;4915299;29;20208;-80
2022/12/28 15:49:59;;;;;;;13.47;12.47;;;7.60;99.90;;;;;;4915502;29;20668;-79
2022/12/28 15:52:27;;;;;;;12.50;11.60;;;7.60;99.90;;;;;;4916335;29;20244;-79
2022/12/28 15:54:54;;;;;;;11.20;10.40;;;7.50;99.90;;;;;;4916964;29;20632;-79
2022/12/28 15:57:21;;;;;;;11.70;10.90;;;7.50;99.90;;;;;;4915484;29;20235;-79
2022/12/28 15:59:47;;;;;;;11.97;11.03;;;7.40;99.90;;;;;;4915118;29;20282;-79
2022/12/28 16:02:15;;;;;;;11.23;10.10;;;7.40;99.90;;;;;;4914914;29;20240;-78
2022/12/28 16:04:42;;;;;;;10.90;10.10;;;7.40;99.90;;;;;;4916874;29;20234;-79
2022/12/28 16:07:09;;;;;;;11.50;10.70;;;7.40;99.90;;;;;;4915670;29;20703;-80
2022/12/28 16:09:37;;;;;;;10.77;9.90;;;7.40;99.90;;;;;;4908085;29;20252;-78
2022/12/28 16:12:06;;;;;;;10.50;9.70;;;7.40;99.90;;;;;;4916137;29;20292;-79
2022/12/28 16:14:33;;;;;;;10.53;9.73;;;7.40;99.90;;;;;;4915644;29;20624;-79
2022/12/28 16:17:00;;;;;;;10.43;9.63;;;7.50;99.90;;;;;;4915596;29;20630;-79
2022/12/28 16:19:26;;;;;;;10.30;9.60;;;7.50;99.90;;;;;;4914284;29;20349;-79